createdAt,value
2018-10-18T00:02:25.178Z,16.60
2018-10-18T00:04:53.383Z,16.70
2018-10-18T00:07:21.564Z,19.55
2018-10-18T00:09:50.949Z,17.66
2018-10-18T00:12:19.173Z,19.73
2018-10-18T00:14:47.353Z,18.90
2018-10-18T00:17:48.140Z,18.25
2018-10-18T00:20:17.205Z,18.48
2018-10-18T00:22:45.888Z,16.73
2018-10-18T00:25:14.504Z,16.28
2018-10-18T00:27:42.672Z,18.32
2018-10-18T00:30:12.241Z,16.57
2018-10-18T00:32:40.765Z,17.10
2018-10-18T00:35:09.161Z,17.27
2018-10-18T00:37:41.191Z,17.50
2018-10-18T00:40:10.811Z,17.00
2018-10-18T00:42:39.012Z,19.75
2018-10-18T00:45:07.864Z,19.75
2018-10-18T00:47:36.160Z,19.77
2018-10-18T00:50:04.931Z,19.27
2018-10-18T00:52:33.066Z,21.30
2018-10-18T00:55:01.243Z,22.40
2018-10-18T00:57:29.432Z,20.90
2018-10-18T00:59:57.605Z,20.57
2018-10-18T01:02:25.819Z,22.17
2018-10-18T01:04:53.990Z,23.50
2018-10-18T01:07:22.194Z,22.17
2018-10-18T01:09:53.394Z,24.43
2018-10-18T01:12:21.693Z,27.10
2018-10-18T01:14:50.129Z,22.52
2018-10-18T01:17:18.275Z,24.30
2018-10-18T01:19:46.489Z,25.25
2018-10-18T01:22:15.096Z,22.67
2018-10-18T01:24:43.284Z,23.13
2018-10-18T01:27:11.488Z,22.45
2018-10-18T01:29:42.736Z,24.97
2018-10-18T01:32:11.233Z,23.05
2018-10-18T01:34:39.949Z,22.87
2018-10-18T01:37:08.160Z,24.40
2018-10-18T01:39:36.324Z,20.72
2018-10-18T01:42:05.866Z,22.83
2018-10-18T01:44:35.155Z,22.82
2018-10-18T01:47:03.580Z,20.77
2018-10-18T01:49:31.766Z,19.70
2018-10-18T01:52:00.487Z,22.40
2018-10-18T01:54:33.287Z,20.20
2018-10-18T01:57:01.517Z,20.93
2018-10-18T01:59:30.320Z,22.65
2018-10-18T02:01:58.609Z,18.00
2018-10-18T02:04:26.768Z,16.27
2018-10-18T02:06:55.312Z,16.02
2018-10-18T02:09:28.032Z,17.27
2018-10-18T02:11:56.340Z,14.20
2018-10-18T02:14:24.546Z,13.70
2018-10-18T02:16:52.747Z,14.40
2018-10-18T02:19:20.993Z,14.60
2018-10-18T02:21:49.173Z,14.83
2018-10-18T02:24:27.915Z,15.80
2018-10-18T02:26:56.116Z,17.90
2018-10-18T02:29:24.345Z,17.60
2018-10-18T02:31:52.565Z,19.00
2018-10-18T02:34:21.686Z,21.02
2018-10-18T02:36:50.105Z,22.43
2018-10-18T02:39:18.303Z,22.25
2018-10-18T02:41:46.752Z,22.58
2018-10-18T02:44:14.972Z,22.63
2018-10-18T02:46:43.153Z,21.90
2018-10-18T02:49:11.374Z,20.90
2018-10-18T02:51:39.576Z,22.80
2018-10-18T02:54:07.913Z,21.85
2018-10-18T02:56:36.237Z,21.42
2018-10-18T02:59:05.020Z,21.83
2018-10-18T03:01:33.212Z,21.67
2018-10-18T03:04:01.431Z,20.97
2018-10-18T03:06:29.637Z,21.60
2018-10-18T03:08:57.872Z,20.83
2018-10-18T03:11:26.099Z,22.17
2018-10-18T03:13:54.288Z,21.57
2018-10-18T03:16:22.483Z,22.47
2018-10-18T03:18:50.651Z,22.17
2018-10-18T03:21:18.869Z,24.13
2018-10-18T03:23:47.068Z,21.90
2018-10-18T03:26:15.271Z,19.70
2018-10-18T03:28:43.452Z,22.43
2018-10-18T03:31:11.683Z,21.40
2018-10-18T03:33:39.890Z,22.30
2018-10-18T03:36:08.083Z,18.85
2018-10-18T03:38:36.257Z,19.40
2018-10-18T03:41:04.784Z,17.07
2018-10-18T03:43:33.004Z,20.10
2018-10-18T03:46:01.253Z,18.53
2018-10-18T03:48:29.456Z,19.00
2018-10-18T03:50:57.716Z,19.57
2018-10-18T03:53:26.224Z,17.83
2018-10-18T03:56:01.589Z,17.03
2018-10-18T03:58:29.995Z,16.75
2018-10-18T04:00:58.172Z,16.87
2018-10-18T04:03:26.446Z,17.20
2018-10-18T04:05:55.057Z,16.50
2018-10-18T04:08:23.257Z,17.87
2018-10-18T04:10:55.862Z,20.67
2018-10-18T04:13:24.082Z,22.10
2018-10-18T04:15:52.465Z,22.15
2018-10-18T04:18:20.702Z,21.37
2018-10-18T04:20:48.907Z,22.42
2018-10-18T04:23:33.008Z,24.07
2018-10-18T04:26:02.036Z,22.37
2018-10-18T04:28:30.592Z,23.63
2018-10-18T04:30:59.072Z,22.07
2018-10-18T04:33:27.416Z,22.20
2018-10-18T04:35:55.772Z,23.30
2018-10-18T04:38:24.009Z,21.77
2018-10-18T04:40:52.247Z,23.18
2018-10-18T04:43:20.508Z,22.80
2018-10-18T04:45:48.752Z,23.00
2018-10-18T04:48:17.035Z,26.00
2018-10-18T04:50:45.225Z,25.53
2018-10-18T04:53:13.422Z,25.77
2018-10-18T04:55:41.606Z,23.97
2018-10-18T04:58:13.957Z,26.67
2018-10-18T05:00:42.135Z,26.73
2018-10-18T05:03:10.354Z,26.40
2018-10-18T05:05:54.522Z,26.80
2018-10-18T05:08:23.909Z,24.55
2018-10-18T05:10:52.187Z,23.17
2018-10-18T05:13:23.665Z,25.65
2018-10-18T05:15:51.855Z,25.17
2018-10-18T05:18:20.639Z,24.27
2018-10-18T05:25:45.161Z,23.80
2018-10-18T05:28:17.874Z,24.07
2018-10-18T05:30:46.064Z,21.43
2018-10-18T05:33:15.388Z,20.60
2018-10-18T05:35:43.530Z,23.70
2018-10-18T05:38:11.774Z,22.43
2018-10-18T05:40:40.048Z,22.60
2018-10-18T05:43:11.538Z,22.47
2018-10-18T05:45:39.972Z,24.50
2018-10-18T05:48:08.348Z,24.93
2018-10-18T05:50:36.579Z,24.70
2018-10-18T05:53:05.139Z,26.30
2018-10-18T05:55:33.280Z,26.23
2018-10-18T05:58:01.485Z,25.80
2018-10-18T06:00:29.674Z,25.10
2018-10-18T06:02:57.847Z,25.65
2018-10-18T06:05:26.161Z,23.80
2018-10-18T06:07:54.585Z,25.83
2018-10-18T06:10:34.322Z,21.03
2018-10-18T06:13:05.718Z,22.07
2018-10-18T06:15:33.908Z,21.90
2018-10-18T06:18:02.111Z,23.90
2018-10-18T06:20:31.235Z,23.12
2018-10-18T06:22:59.582Z,24.70
2018-10-18T06:25:27.709Z,26.12
2018-10-18T06:27:56.236Z,24.56
2018-10-18T06:30:24.496Z,26.40
2018-10-18T06:32:52.813Z,23.50
2018-10-18T06:35:21.087Z,23.90
2018-10-18T06:37:49.322Z,24.90
2018-10-18T06:40:18.184Z,23.80
2018-10-18T06:42:46.407Z,23.10
2018-10-18T06:45:18.169Z,24.30
2018-10-18T06:47:46.881Z,22.77
2018-10-18T06:50:17.308Z,23.85
2018-10-18T06:52:45.459Z,24.10
2018-10-18T06:55:13.749Z,24.10
2018-10-18T06:57:42.729Z,21.93
2018-10-18T07:00:14.361Z,24.80
2018-10-18T07:02:43.273Z,23.02
2018-10-18T07:05:12.693Z,24.02
2018-10-18T07:07:42.249Z,24.05
2018-10-18T07:10:10.676Z,24.70
2018-10-18T07:12:39.389Z,24.97
2018-10-18T07:15:08.533Z,24.90
2018-10-18T07:17:38.043Z,23.27
2018-10-18T07:20:07.660Z,24.05
2018-10-18T07:22:36.720Z,25.00
2018-10-18T07:25:06.208Z,23.40
2018-10-18T07:27:34.381Z,24.98
2018-10-18T07:30:06.990Z,23.97
2018-10-18T07:32:35.138Z,24.63
2018-10-18T07:35:03.413Z,25.88
2018-10-18T07:37:31.624Z,24.63
2018-10-18T07:39:59.800Z,23.22
2018-10-18T07:42:28.268Z,24.67
2018-10-18T07:45:05.180Z,22.77
2018-10-18T07:47:33.826Z,24.02
2018-10-18T07:50:01.994Z,23.47
2018-10-18T07:52:30.272Z,24.32
2018-10-18T07:54:58.447Z,28.17
2018-10-18T07:57:26.717Z,29.60
2018-10-18T07:59:54.937Z,32.20
2018-10-18T08:02:23.162Z,37.28
2018-10-18T08:04:51.387Z,36.50
2018-10-18T08:07:19.597Z,42.80
2018-10-18T08:09:47.797Z,45.80
2018-10-18T08:12:16.021Z,35.57
2018-10-18T08:14:44.249Z,35.50
2018-10-18T08:17:12.556Z,31.00
2018-10-18T08:19:40.724Z,32.37
2018-10-18T08:22:08.972Z,32.65
2018-10-18T08:24:37.179Z,28.40
2018-10-18T08:27:05.560Z,27.30
2018-10-18T08:29:33.770Z,28.47
2018-10-18T08:32:05.691Z,29.23
2018-10-18T08:34:33.911Z,27.80
2018-10-18T08:37:02.707Z,28.95
2018-10-18T08:39:30.868Z,27.87
2018-10-18T08:41:59.093Z,27.45
2018-10-18T08:44:27.496Z,30.97
2018-10-18T08:46:59.599Z,30.60
2018-10-18T08:49:27.825Z,30.92
2018-10-18T08:51:56.073Z,28.73
2018-10-18T08:54:24.304Z,26.37
2018-10-18T08:56:52.530Z,27.93
2018-10-18T08:59:20.804Z,29.70
2018-10-18T09:01:52.175Z,29.60
2018-10-18T09:04:20.607Z,28.90
2018-10-18T09:06:48.806Z,28.77
2018-10-18T09:09:17.766Z,29.60
2018-10-18T09:11:45.780Z,26.57
2018-10-18T09:14:13.998Z,27.07
2018-10-18T09:16:42.508Z,26.73
2018-10-18T09:19:10.797Z,28.77
2018-10-18T09:21:38.920Z,27.57
2018-10-18T09:24:07.277Z,28.10
2018-10-18T09:26:35.472Z,26.87
2018-10-18T09:29:03.648Z,29.53
2018-10-18T09:31:31.986Z,28.00
2018-10-18T09:34:00.116Z,26.60
2018-10-18T09:36:28.708Z,27.97
2018-10-18T09:38:56.908Z,27.40
2018-10-18T09:41:25.208Z,28.70
2018-10-18T09:43:58.809Z,27.23
2018-10-18T09:46:35.288Z,29.25
2018-10-18T09:49:04.180Z,28.75
2018-10-18T09:51:32.346Z,27.37
2018-10-18T09:54:01.617Z,29.02
2018-10-18T09:56:30.256Z,28.07
2018-10-18T09:58:58.467Z,29.20
2018-10-18T10:01:32.072Z,31.20
2018-10-18T10:04:04.788Z,30.03
2018-10-18T10:06:32.979Z,30.80
2018-10-18T10:09:01.184Z,29.50
2018-10-18T10:11:29.406Z,28.97
2018-10-18T10:13:57.599Z,28.27
2018-10-18T10:16:25.777Z,29.83
2018-10-18T10:18:57.769Z,30.00
2018-10-18T10:21:28.863Z,28.47
2018-10-18T10:23:57.041Z,28.43
2018-10-18T10:26:25.316Z,27.50
2018-10-18T10:28:53.512Z,28.32
2018-10-18T10:31:21.712Z,29.40
2018-10-18T10:33:53.331Z,27.73
2018-10-18T10:36:21.625Z,28.70
2018-10-18T10:38:49.888Z,29.80
2018-10-18T10:41:18.118Z,29.65
2018-10-18T10:43:46.320Z,29.87
2018-10-18T10:46:14.586Z,31.00
2018-10-18T10:48:46.366Z,29.73
2018-10-18T10:51:14.638Z,29.63
2018-10-18T10:53:42.780Z,28.20
2018-10-18T10:56:11.111Z,28.25
2018-10-18T10:58:39.431Z,30.82
2018-10-18T11:01:10.553Z,31.00
2018-10-18T11:03:43.917Z,30.53
2018-10-18T11:06:12.589Z,31.30
2018-10-18T11:08:40.678Z,30.50
2018-10-18T11:11:09.356Z,30.27
2018-10-18T11:13:37.590Z,29.20
2018-10-18T11:16:06.362Z,27.77
2018-10-18T11:18:39.512Z,30.02
2018-10-18T11:21:08.920Z,29.43
2018-10-18T11:23:37.128Z,29.30
2018-10-18T11:26:06.335Z,28.70
2018-10-18T11:28:34.612Z,27.83
2018-10-18T11:31:02.844Z,27.73
2018-10-18T11:33:31.040Z,29.30
2018-10-18T11:35:59.284Z,29.43
2018-10-18T11:38:27.575Z,29.12
2018-10-18T11:40:55.940Z,28.47
2018-10-18T11:43:24.221Z,29.07
2018-10-18T11:45:52.480Z,25.80
2018-10-18T11:48:20.765Z,29.00
2018-10-18T11:50:49.004Z,27.90
2018-10-18T11:53:17.228Z,27.13
2018-10-18T11:55:45.432Z,24.47
2018-10-18T11:58:14.045Z,26.70
2018-10-18T12:00:42.307Z,25.43
2018-10-18T12:03:10.492Z,21.17
2018-10-18T12:05:39.631Z,21.77
2018-10-18T12:08:07.992Z,26.40
2018-10-18T12:10:36.184Z,22.93
2018-10-18T12:13:04.751Z,25.70
2018-10-18T12:15:32.949Z,25.10
2018-10-18T12:18:01.191Z,24.82
2018-10-18T12:20:29.484Z,24.40
2018-10-18T12:22:57.647Z,23.40
2018-10-18T12:25:25.940Z,22.47
2018-10-18T12:27:54.213Z,21.00
2018-10-18T12:30:22.405Z,20.37
2018-10-18T12:32:50.600Z,22.75
2018-10-18T12:35:18.918Z,24.90
2018-10-18T12:37:47.081Z,24.77
2018-10-18T12:40:15.374Z,21.03
2018-10-18T12:42:44.672Z,16.87
2018-10-18T12:45:13.725Z,21.93
2018-10-18T12:47:42.025Z,23.50
2018-10-18T12:50:10.336Z,24.20
2018-10-18T12:52:38.517Z,17.07
2018-10-18T12:55:07.105Z,15.80
2018-10-18T12:57:35.312Z,18.67
2018-10-18T13:00:03.595Z,15.70
2018-10-18T13:02:31.902Z,16.00
2018-10-18T13:05:03.433Z,14.13
2018-10-18T13:07:31.686Z,18.80
2018-10-18T13:10:00.015Z,20.20
2018-10-18T13:12:28.582Z,20.50
2018-10-18T13:14:56.699Z,19.00
2018-10-18T13:17:25.289Z,13.65
2018-10-18T13:19:53.565Z,18.53
2018-10-18T13:22:21.776Z,15.78
2018-10-18T13:24:50.002Z,18.13
2018-10-18T13:27:18.211Z,18.83
2018-10-18T13:29:46.468Z,15.67
2018-10-18T13:32:14.764Z,18.90
2018-10-18T13:34:42.960Z,20.50
2018-10-18T13:37:11.180Z,18.03
2018-10-18T13:39:39.448Z,14.13
2018-10-18T13:42:07.746Z,17.57
2018-10-18T13:44:35.940Z,18.25
2018-10-18T13:47:04.442Z,18.27
2018-10-18T13:49:32.647Z,19.07
2018-10-18T13:52:00.995Z,20.27
2018-10-18T13:54:29.265Z,19.67
2018-10-18T13:56:57.488Z,20.52
2018-10-18T13:59:37.106Z,21.27
2018-10-18T14:02:05.663Z,20.23
2018-10-18T14:04:33.826Z,20.87
2018-10-18T14:07:02.029Z,16.80
2018-10-18T14:09:30.228Z,20.40
2018-10-18T14:11:58.432Z,19.60
2018-10-18T14:14:26.677Z,19.12
2018-10-18T14:16:54.940Z,18.10
2018-10-18T14:19:23.288Z,21.97
2018-10-18T14:21:55.095Z,21.13
2018-10-18T14:24:23.305Z,20.10
2018-10-18T14:26:51.525Z,18.77
2018-10-18T14:29:19.798Z,21.43
2018-10-18T14:31:48.472Z,20.27
2018-10-18T14:34:16.663Z,18.77
2018-10-18T14:36:47.948Z,18.07
2018-10-18T14:39:16.221Z,18.50
2018-10-18T14:41:44.517Z,19.47
2018-10-18T14:44:13.236Z,19.45
2018-10-18T14:46:41.427Z,18.87
2018-10-18T14:49:09.676Z,18.83
2018-10-18T14:51:41.855Z,17.80
2018-10-18T14:54:10.132Z,15.70
2018-10-18T14:56:38.365Z,17.57
2018-10-18T14:59:06.713Z,17.10
2018-10-18T15:01:34.909Z,17.37
2018-10-18T15:04:03.178Z,13.58
2018-10-18T15:06:31.396Z,17.33
2018-10-18T15:09:03.532Z,16.83
2018-10-18T15:11:31.844Z,16.30
2018-10-18T15:14:00.065Z,16.50
2018-10-18T15:16:28.312Z,15.07
2018-10-18T15:18:56.533Z,16.17
2018-10-18T15:21:24.924Z,15.73
2018-10-18T15:23:53.164Z,17.47
2018-10-18T15:26:21.738Z,16.30
2018-10-18T15:28:49.888Z,13.57
2018-10-18T15:31:18.379Z,15.60
2018-10-18T15:33:46.614Z,16.42
2018-10-18T15:36:14.839Z,17.20
2018-10-18T15:38:43.440Z,16.17
2018-10-18T15:41:12.735Z,15.65
2018-10-18T15:43:40.880Z,16.45
2018-10-18T15:46:09.266Z,16.50
2018-10-18T15:48:37.458Z,15.83
2018-10-18T15:51:05.772Z,15.32
2018-10-18T15:53:36.690Z,15.13
2018-10-18T15:56:05.272Z,14.63
2018-10-18T15:58:33.541Z,16.17
2018-10-18T16:01:02.205Z,14.60
2018-10-18T16:03:30.392Z,15.73
2018-10-18T16:05:58.636Z,17.53
2018-10-18T16:08:31.596Z,13.15
2018-10-18T16:10:59.892Z,17.10
2018-10-18T16:13:28.042Z,16.77
2018-10-18T16:15:56.583Z,17.63
2018-10-18T16:18:24.817Z,17.47
2018-10-18T16:20:53.158Z,18.73
2018-10-18T16:23:30.383Z,16.47
2018-10-18T16:25:58.782Z,18.20
2018-10-18T16:28:26.982Z,15.60
2018-10-18T16:30:55.257Z,18.30
2018-10-18T16:33:23.432Z,17.13
2018-10-18T16:35:51.656Z,16.60
2018-10-18T16:38:19.992Z,18.50
2018-10-18T16:40:48.361Z,18.03
2018-10-18T16:43:16.595Z,18.23
2018-10-18T16:45:44.780Z,17.70
2018-10-18T16:48:13.138Z,20.87
2018-10-18T16:50:41.271Z,19.10
2018-10-18T16:53:09.489Z,16.80
2018-10-18T16:55:37.729Z,19.13
2018-10-18T16:58:06.038Z,17.90
2018-10-18T17:00:34.276Z,19.97
2018-10-18T17:03:02.549Z,17.30
2018-10-18T17:05:30.804Z,18.75
2018-10-18T17:07:59.106Z,18.20
2018-10-18T17:10:27.640Z,17.57
2018-10-18T17:12:55.884Z,17.20
2018-10-18T17:15:24.300Z,18.17
2018-10-18T17:17:52.629Z,17.13
2018-10-18T17:25:18.165Z,18.60
2018-10-18T17:27:47.028Z,18.95
2018-10-18T17:30:15.183Z,20.27
2018-10-18T17:32:43.303Z,16.85
2018-10-18T17:35:11.468Z,18.50
2018-10-18T17:37:39.698Z,18.92
2018-10-18T17:40:12.185Z,19.80
2018-10-18T17:42:40.439Z,21.13
2018-10-18T17:45:09.652Z,19.70
2018-10-18T17:47:37.867Z,21.65
2018-10-18T17:50:07.345Z,19.95
2018-10-18T17:52:35.920Z,20.63
2018-10-18T17:55:07.521Z,21.70
2018-10-18T17:57:36.244Z,22.52
2018-10-18T18:00:07.421Z,25.40
2018-10-18T18:02:35.748Z,21.90
2018-10-18T18:05:04.018Z,22.30
2018-10-18T18:07:32.907Z,21.00
2018-10-18T18:10:05.337Z,23.65
2018-10-18T18:12:33.536Z,22.63
2018-10-18T18:15:01.773Z,21.90
2018-10-18T18:17:30.324Z,22.53
2018-10-18T18:19:58.527Z,21.37
2018-10-18T18:22:27.744Z,20.80
2018-10-18T18:24:55.999Z,20.97
2018-10-18T18:27:24.282Z,21.10
2018-10-18T18:29:52.915Z,23.85
2018-10-18T18:32:21.198Z,23.83
2018-10-18T18:34:49.422Z,22.22
2018-10-18T18:37:17.724Z,22.25
2018-10-18T18:39:45.919Z,23.10
2018-10-18T18:42:14.245Z,24.07
2018-10-18T18:44:42.452Z,24.77
2018-10-18T18:47:10.677Z,25.02
2018-10-18T18:49:38.880Z,25.37
2018-10-18T18:52:07.584Z,24.30
2018-10-18T18:54:35.843Z,26.13
2018-10-18T18:57:04.129Z,26.87
2018-10-18T18:59:32.312Z,25.70
2018-10-18T19:02:00.537Z,27.90
2018-10-18T19:04:28.760Z,27.37
2018-10-18T19:06:57.029Z,26.13
2018-10-18T19:09:25.233Z,28.47
2018-10-18T19:11:53.423Z,27.60
2018-10-18T19:14:21.582Z,27.60
2018-10-18T19:16:49.827Z,29.77
2018-10-18T19:19:18.278Z,29.03
2018-10-18T19:21:46.561Z,28.63
2018-10-18T19:24:14.840Z,28.57
2018-10-18T19:26:43.040Z,28.67
2018-10-18T19:29:11.224Z,26.30
2018-10-18T19:31:40.348Z,26.85
2018-10-18T19:34:08.784Z,26.50
2018-10-18T19:36:37.069Z,29.98
2018-10-18T19:39:07.353Z,28.53
2018-10-18T19:41:36.679Z,27.60
2018-10-18T19:44:05.168Z,27.37
2018-10-18T19:46:33.501Z,27.97
2018-10-18T19:49:01.800Z,29.90
2018-10-18T19:51:30.251Z,29.55
2018-10-18T19:53:58.783Z,30.17
2018-10-18T19:56:30.934Z,29.53
2018-10-18T19:58:59.313Z,30.50
2018-10-18T20:01:27.895Z,31.17
2018-10-18T20:03:56.733Z,29.17
2018-10-18T20:06:25.903Z,31.77
2018-10-18T20:08:54.129Z,30.93
2018-10-18T20:11:22.355Z,30.47
2018-10-18T20:13:50.829Z,29.63
2018-10-18T20:16:19.226Z,30.53
2018-10-18T20:18:47.606Z,30.30
2018-10-18T20:21:15.891Z,29.70
2018-10-18T20:23:44.151Z,28.47
2018-10-18T20:26:12.699Z,29.37
2018-10-18T20:28:40.606Z,32.10
2018-10-18T20:31:09.564Z,33.93
2018-10-18T20:33:38.147Z,30.92
2018-10-18T20:36:06.634Z,30.57
2018-10-18T20:38:35.239Z,30.00
2018-10-18T20:41:03.534Z,33.40
2018-10-18T20:43:31.710Z,33.90
2018-10-18T20:45:59.965Z,31.60
2018-10-18T20:48:28.687Z,33.10
2018-10-18T20:50:57.966Z,32.95
2018-10-18T20:53:26.175Z,32.87
2018-10-18T20:55:54.689Z,34.75
2018-10-18T20:58:27.165Z,37.23
2018-10-18T21:00:55.347Z,32.70
2018-10-18T21:03:23.548Z,33.70
2018-10-18T21:05:51.817Z,35.15
2018-10-18T21:08:26.780Z,34.67
2018-10-18T21:10:55.105Z,34.55
2018-10-18T21:13:23.282Z,34.37
2018-10-18T21:15:51.613Z,34.67
2018-10-18T21:18:19.824Z,35.67
2018-10-18T21:20:48.587Z,36.17
2018-10-18T21:23:17.247Z,38.10
2018-10-18T21:25:46.455Z,35.10
2018-10-18T21:28:14.696Z,38.80
2018-10-18T21:30:42.960Z,39.15
2018-10-18T21:33:11.232Z,39.67
2018-10-18T21:35:39.398Z,36.45
2018-10-18T21:38:07.675Z,35.80
2018-10-18T21:40:36.200Z,37.88
2018-10-18T21:43:05.602Z,40.33
2018-10-18T21:45:34.118Z,40.20
2018-10-18T21:48:02.568Z,39.37
2018-10-18T21:50:30.801Z,36.43
2018-10-18T21:52:59.101Z,39.47
2018-10-18T21:55:27.259Z,39.10
2018-10-18T21:57:55.634Z,38.20
2018-10-18T22:00:24.768Z,44.88
2018-10-18T22:05:27.623Z,43.57
2018-10-18T22:07:55.948Z,44.70
2018-10-18T22:10:24.150Z,42.27
2018-10-18T22:12:52.685Z,41.10
2018-10-18T22:15:24.875Z,43.45
2018-10-18T22:17:53.112Z,42.90
2018-10-18T22:20:21.299Z,43.80
2018-10-18T22:22:49.603Z,42.80
2018-10-18T22:25:17.836Z,44.90
2018-10-18T22:27:46.028Z,41.55
2018-10-18T22:30:14.236Z,42.33
2018-10-18T22:32:42.475Z,44.87
2018-10-18T22:35:10.989Z,46.60
2018-10-18T22:37:39.135Z,47.55
2018-10-18T22:40:07.990Z,47.53
2018-10-18T22:42:36.208Z,51.70
2018-10-18T22:45:15.477Z,49.53
2018-10-18T22:47:43.641Z,49.43
2018-10-18T22:50:11.892Z,50.83
2018-10-18T22:52:40.091Z,52.47
2018-10-18T22:55:08.330Z,51.50
2018-10-18T22:57:36.661Z,50.33
2018-10-18T23:00:06.011Z,50.20
2018-10-18T23:02:34.204Z,54.47
2018-10-18T23:05:02.464Z,53.73
2018-10-18T23:07:30.874Z,52.67
2018-10-18T23:09:59.104Z,51.37
2018-10-18T23:12:27.328Z,50.60
2018-10-18T23:15:03.174Z,53.10
2018-10-18T23:17:31.706Z,51.00
2018-10-18T23:19:59.951Z,51.67
2018-10-18T23:22:28.152Z,47.38
2018-10-18T23:24:56.656Z,46.73
2018-10-18T23:27:24.932Z,50.10
2018-10-18T23:29:53.130Z,51.80
2018-10-18T23:32:21.296Z,53.20
2018-10-18T23:34:49.491Z,53.48
2018-10-18T23:37:17.708Z,53.23
2018-10-18T23:39:46.115Z,48.75
2018-10-18T23:42:14.360Z,52.10
2018-10-18T23:44:42.582Z,51.00
2018-10-18T23:47:10.862Z,52.57
2018-10-18T23:49:38.979Z,51.57
2018-10-18T23:52:07.192Z,58.40
2018-10-18T23:54:35.538Z,51.75
2018-10-18T23:57:03.837Z,50.17
2018-10-18T23:59:31.967Z,50.25
